TimeMST,TemperatureF,Dew PointF,Humidity,Sea Level PressureIn,VisibilityMPH,Wind Direction,Wind SpeedMPH,Gust SpeedMPH,PrecipitationIn,Events,Conditions,WindDirDegrees,DateUTC
12:17 AM,14.0,-0.4,53,30.50,10.0,WSW,19.6,-,N/A,,Clear,240,2013-12-26 07:17:00
12:38 AM,15.8,-0.4,49,30.49,10.0,West,19.6,25.3,N/A,,Clear,260,2013-12-26 07:38:00
12:57 AM,15.8,-0.4,49,30.48,10.0,West,25.3,-,N/A,,Clear,270,2013-12-26 07:57:00
1:17 AM,15.8,-0.4,49,30.48,10.0,West,24.2,-,N/A,,Clear,270,2013-12-26 08:17:00
1:37 AM,15.8,1.4,53,30.48,10.0,WSW,20.7,-,N/A,,Clear,250,2013-12-26 08:37:00
1:57 AM,14.0,-0.4,53,30.48,10.0,SW,17.3,21.9,N/A,,Clear,230,2013-12-26 08:57:00
2:17 AM,14.0,-0.4,53,30.49,10.0,SW,13.8,-,N/A,,Clear,230,2013-12-26 09:17:00
2:38 AM,15.8,-0.4,49,30.49,10.0,WSW,15.0,-,N/A,,Clear,240,2013-12-26 09:38:00
2:58 AM,17.6,-4.0,38,30.49,10.0,West,15.0,-,N/A,,Clear,260,2013-12-26 09:58:00
3:17 AM,15.8,-0.4,49,30.48,10.0,West,13.8,-,N/A,,Clear,260,2013-12-26 10:17:00
3:37 AM,17.6,-2.2,42,30.48,10.0,North,-9999.0,-,N/A,,Clear,0,2013-12-26 10:37:00
3:58 AM,17.6,-5.8,35,30.48,10.0,NW,12.7,20.7,N/A,,Clear,310,2013-12-26 10:58:00
4:18 AM,17.6,-5.8,35,30.48,10.0,NW,15.0,-,N/A,,Clear,310,2013-12-26 11:18:00
4:38 AM,17.6,-7.6,32,30.48,10.0,NNW,6.9,20.7,N/A,,Clear,340,2013-12-26 11:38:00
4:57 AM,17.6,-5.8,35,30.48,10.0,NNW,9.2,21.9,N/A,,Clear,330,2013-12-26 11:57:00
5:18 AM,17.6,-4.0,38,30.48,10.0,NNW,6.9,-,N/A,,Clear,330,2013-12-26 12:18:00
5:38 AM,17.6,-0.4,45,30.48,10.0,North,11.5,21.9,N/A,,Clear,360,2013-12-26 12:38:00
5:58 AM,17.6,1.4,49,30.48,10.0,NW,11.5,21.9,N/A,,Clear,320,2013-12-26 12:58:00
6:18 AM,17.6,1.4,49,30.48,10.0,NW,12.7,21.9,N/A,,Clear,310,2013-12-26 13:18:00
6:37 AM,17.6,1.4,49,30.48,10.0,NNW,9.2,20.7,N/A,,Clear,340,2013-12-26 13:37:00
6:58 AM,17.6,1.4,49,30.48,10.0,NNW,6.9,-,N/A,,Clear,340,2013-12-26 13:58:00
7:17 AM,17.6,1.4,49,30.48,10.0,NNW,12.7,18.4,N/A,,Clear,330,2013-12-26 14:17:00
7:38 AM,19.4,-0.4,42,30.48,10.0,NNW,6.9,17.3,N/A,,Clear,340,2013-12-26 14:38:00
7:58 AM,19.4,1.4,46,30.48,10.0,NNW,11.5,20.7,N/A,,Clear,330,2013-12-26 14:58:00
8:18 AM,19.4,1.4,46,30.50,10.0,NNW,11.5,-,N/A,,Clear,330,2013-12-26 15:18:00
8:38 AM,19.4,3.2,49,30.49,10.0,NW,17.3,-,N/A,,Clear,320,2013-12-26 15:38:00
8:57 AM,21.2,3.2,46,30.49,10.0,NW,12.7,25.3,N/A,,Clear,320,2013-12-26 15:57:00
9:18 AM,21.2,3.2,46,30.51,10.0,NW,11.5,20.7,N/A,,Clear,320,2013-12-26 16:18:00
9:38 AM,21.2,3.2,46,30.51,10.0,NW,12.7,-,N/A,,Clear,310,2013-12-26 16:38:00
9:58 AM,21.2,5.0,50,30.52,10.0,NW,12.7,-,N/A,,Clear,310,2013-12-26 16:58:00
10:17 AM,21.2,5.0,50,30.53,10.0,NW,10.4,-,N/A,,Clear,310,2013-12-26 17:17:00
10:37 AM,21.2,5.0,50,30.53,10.0,WNW,10.4,-,N/A,,Clear,300,2013-12-26 17:37:00
10:58 AM,21.2,5.0,50,30.52,10.0,NNW,5.8,-,N/A,,Clear,330,2013-12-26 17:58:00
11:17 AM,21.2,6.8,54,30.51,10.0,NW,13.8,-,N/A,,Clear,310,2013-12-26 18:17:00
11:37 AM,23.0,8.6,54,30.48,10.0,WNW,18.4,-,N/A,,Clear,290,2013-12-26 18:37:00
11:58 AM,21.2,6.8,54,30.48,10.0,South,12.7,-,N/A,,Clear,180,2013-12-26 18:58:00
12:17 PM,23.0,6.8,50,30.49,10.0,Calm,Calm,-,N/A,,Clear,0,2013-12-26 19:17:00
12:38 PM,23.0,8.6,54,30.47,10.0,WSW,16.1,-,N/A,,Clear,250,2013-12-26 19:38:00
12:45 PM,23.0,8.6,54,30.47,10.0,WSW,12.7,-,N/A,,Clear,250,2013-12-26 19:45:00
6:38 PM,19.4,6.8,58,30.48,10.0,WSW,5.8,-,N/A,,Clear,250,2013-12-27 01:38:00
6:58 PM,19.4,8.6,63,30.48,10.0,WNW,6.9,-,N/A,,Clear,290,2013-12-27 01:58:00
7:18 PM,19.4,6.8,58,30.49,10.0,West,5.8,-,N/A,,Clear,260,2013-12-27 02:18:00
7:38 PM,19.4,6.8,58,30.49,10.0,West,4.6,-,N/A,,Clear,270,2013-12-27 02:38:00
7:58 PM,19.4,6.8,58,30.50,10.0,West,4.6,-,N/A,,Clear,260,2013-12-27 02:58:00
8:18 PM,19.4,8.6,63,30.50,10.0,SW,3.5,-,N/A,,Clear,230,2013-12-27 03:18:00
8:38 PM,19.4,8.6,63,30.50,10.0,West,3.5,-,N/A,,Clear,260,2013-12-27 03:38:00
8:58 PM,19.4,8.6,63,30.50,10.0,West,4.6,-,N/A,,Clear,260,2013-12-27 03:58:00
9:18 PM,19.4,6.8,58,30.51,10.0,SW,5.8,-,N/A,,Clear,230,2013-12-27 04:18:00
9:38 PM,17.6,5.0,58,30.51,10.0,SW,10.4,-,N/A,,Clear,220,2013-12-27 04:38:00
9:58 PM,17.6,6.8,63,30.51,10.0,North,-9999.0,-,N/A,,Clear,0,2013-12-27 04:58:00
10:18 PM,15.8,5.0,62,30.51,10.0,North,-9999.0,-,N/A,,Clear,0,2013-12-27 05:18:00
10:38 PM,17.6,5.0,58,30.51,10.0,WSW,10.4,-,N/A,,Clear,240,2013-12-27 05:38:00
10:58 PM,19.4,8.6,63,30.53,10.0,WSW,9.2,-,N/A,,Clear,240,2013-12-27 05:58:00
11:18 PM,19.4,8.6,63,30.51,10.0,West,5.8,-,N/A,,Clear,260,2013-12-27 06:18:00
11:38 PM,17.6,8.6,68,30.52,10.0,WSW,10.4,-,N/A,,Clear,250,2013-12-27 06:38:00
11:58 PM,19.4,8.6,63,30.51,10.0,WSW,8.1,-,N/A,,Clear,250,2013-12-27 06:58:00